Time;durP1;ratioP1;P1;durP2;ratioP2;P2;SDS_P1;SDS_P2;PMS_P1;PMS_P2;Temp;Humidity;BMP_temperature;BMP_pressure;BME280_temperature;BME280_humidity;BME280_pressure;Samples;Min_cycle;Max_cycle;Signal;HPM_P1;HPM_P2
2022/12/30 00:01:49;;;;;;;6.90;6.28;;;;;;;;;;4992461;28;20045;-80
2022/12/30 00:04:15;;;;;;;6.70;6.30;;;;;;;;;;5000188;28;20061;-80
2022/12/30 00:06:41;;;;;;;8.70;6.63;;;;;;;;;;4992389;28;20077;-79
2022/12/30 00:09:06;;;;;;;6.85;6.40;;;;;;;;;;4999877;28;20037;-82
2022/12/30 00:11:33;;;;;;;6.90;6.50;;;;;;;;;;4993936;28;20038;-81
2022/12/30 00:34:00;;;;;;;6.55;6.15;;;;;;;;;;4991528;28;20488;-79
2022/12/30 00:36:27;;;;;;;6.30;5.97;;;;;;;;;;4994879;28;20528;-80
2022/12/30 00:38:53;;;;;;;6.75;6.35;;;;;;;;;;4981894;28;20069;-80
2022/12/30 00:44:03;;;;;;;6.40;6.10;;;;;;;;;;4989263;28;20049;-80
2022/12/30 00:46:29;;;;;;;6.93;6.50;;;;;;;;;;4993879;28;20034;-78
2022/12/30 00:57:06;;;;;;;6.55;6.15;;;;;;;;;;4990995;28;20034;-78
2022/12/30 00:59:32;;;;;;;6.68;6.30;;;;;;;;;;4994015;28;20112;-77
2022/12/30 01:01:58;;;;;;;6.53;6.15;;;;;;;;;;4990107;28;20045;-79
2022/12/30 01:04:23;;;;;;;6.13;5.82;;;;;;;;;;4996317;28;20497;-79
2022/12/30 01:06:49;;;;;;;6.47;6.07;;;;;;;;;;4993442;28;20065;-80
2022/12/30 01:09:14;;;;;;;6.15;5.85;;;;;;;;;;4988113;28;20038;-78
2022/12/30 01:11:40;;;;;;;6.60;6.20;;;;;;;;;;4990681;28;20035;-78
2022/12/30 01:14:05;;;;;;;6.05;5.75;;;;;;;;;;4990372;28;20111;-77
2022/12/30 01:16:31;;;;;;;5.93;5.53;;;;;;;;;;4993205;28;20037;-80
2022/12/30 01:18:56;;;;;;;6.78;6.47;;;;;;;;;;4986136;28;20026;-79
2022/12/30 01:21:22;;;;;;;5.97;5.68;;;;;;;;;;4992413;28;20035;-80
2022/12/30 01:23:48;;;;;;;6.32;5.93;;;;;;;;;;4995699;28;20046;-79
2022/12/30 01:26:13;;;;;;;6.22;5.82;;;;;;;;;;4993907;28;20500;-78
2022/12/30 01:28:39;;;;;;;6.47;6.07;;;;;;;;;;4991974;28;20030;-79
2022/12/30 01:31:10;;;;;;;6.40;6.10;;;;;;;;;;4997358;28;20045;-82
2022/12/30 01:33:35;;;;;;;6.97;6.38;;;;;;;;;;4996260;28;20022;-80
2022/12/30 01:36:02;;;;;;;6.47;6.10;;;;;;;;;;4992373;28;20042;-80
2022/12/30 01:38:30;;;;;;;5.97;5.68;;;;;;;;;;4991181;28;20037;-80
2022/12/30 01:40:55;;;;;;;6.40;6.10;;;;;;;;;;4999887;28;20189;-80
2022/12/30 01:43:39;;;;;;;5.90;5.60;;;;;;;;;;4992924;28;20121;-79
2022/12/30 01:46:06;;;;;;;5.70;5.40;;;;;;;;;;4995660;28;20029;-82
2022/12/30 01:48:32;;;;;;;5.72;5.38;;;;;;;;;;4991895;28;20037;-79
2022/12/30 01:50:59;;;;;;;5.60;5.30;;;;;;;;;;4989933;28;20112;-80
2022/12/30 01:53:35;;;;;;;5.90;5.60;;;;;;;;;;4990629;28;20045;-78
2022/12/30 01:56:34;;;;;;;6.03;5.65;;;;;;;;;;4991605;28;20083;-80
2022/12/30 01:59:05;;;;;;;6.20;5.90;;;;;;;;;;4998084;28;20029;-80
2022/12/30 02:01:33;;;;;;;6.10;5.80;;;;;;;;;;4994481;28;20088;-79
2022/12/30 02:04:02;;;;;;;5.80;5.50;;;;;;;;;;4974365;28;20069;-79
2022/12/30 02:06:42;;;;;;;6.95;6.35;;;;;;;;;;4993571;28;20031;-80
2022/12/30 02:09:07;;;;;;;6.28;5.97;;;;;;;;;;4990994;28;20036;-78
2022/12/30 02:11:33;;;;;;;6.53;6.22;;;;;;;;;;4994524;28;20026;-79
2022/12/30 02:13:59;;;;;;;6.07;5.78;;;;;;;;;;4989672;28;20049;-80
2022/12/30 02:16:37;;;;;;;6.40;6.00;;;;;;;;;;4988965;28;20037;-80
2022/12/30 02:19:24;;;;;;;6.03;5.72;;;;;;;;;;4989855;28;20026;-80
2022/12/30 02:22:33;;;;;;;6.15;5.75;;;;;;;;;;4985734;28;20030;-79
2022/12/30 02:25:23;;;;;;;6.45;6.13;;;;;;;;;;4967503;28;20051;-79
2022/12/30 02:28:13;;;;;;;5.97;5.68;;;;;;;;;;4972529;28;20050;-79
2022/12/30 02:31:03;;;;;;;6.07;5.78;;;;;;;;;;4963860;28;20525;-79
2022/12/30 02:33:35;;;;;;;6.03;5.55;;;;;;;;;;4967314;28;20562;-77
2022/12/30 02:36:25;;;;;;;6.55;6.13;;;;;;;;;;4976500;28;20609;-79
2022/12/30 02:39:22;;;;;;;5.68;5.38;;;;;;;;;;4963665;28;20039;-81
2022/12/30 02:45:02;;;;;;;6.07;5.68;;;;;;;;;;4966297;28;21598;-79
2022/12/30 02:47:39;;;;;;;5.80;5.50;;;;;;;;;;4968492;28;20027;-78
2022/12/30 02:52:57;;;;;;;5.70;5.43;;;;;;;;;;4980960;28;20049;-84
2022/12/30 02:55:23;;;;;;;6.53;5.93;;;;;;;;;;4962025;28;20145;-77
2022/12/30 02:57:49;;;;;;;5.90;5.50;;;;;;;;;;4962678;28;20711;-81
2022/12/30 03:03:59;;;;;;;5.80;5.50;;;;;;;;;;4991612;28;20040;-79
2022/12/30 03:06:30;;;;;;;6.40;5.78;;;;;;;;;;5001135;28;20034;-81
2022/12/30 03:09:10;;;;;;;5.68;5.38;;;;;;;;;;4994900;28;20034;-80
2022/12/30 03:11:51;;;;;;;5.75;5.45;;;;;;;;;;4991432;28;20423;-78
2022/12/30 03:14:34;;;;;;;6.13;5.60;;;;;;;;;;5002608;28;20034;-80
2022/12/30 03:17:14;;;;;;;6.07;5.78;;;;;;;;;;5004206;28;20041;-79
2022/12/30 03:19:43;;;;;;;6.00;5.70;;;;;;;;;;4995962;28;20072;-78
2022/12/30 03:27:03;;;;;;;;;;;;;;;;;;4997908;28;20064;-81
2022/12/30 03:27:44;;;;;;;5.25;5.05;;;;;;;;;;4993713;28;20073;-79
2022/12/30 03:30:11;;;;;;;5.93;5.53;;;;;;;;;;4994653;28;20485;-79
2022/12/30 03:32:37;;;;;;;5.95;5.65;;;;;;;;;;5003584;28;20038;-80
2022/12/30 03:35:04;;;;;;;6.43;6.03;;;;;;;;;;4991453;28;20104;-79
2022/12/30 03:37:38;;;;;;;5.90;5.60;;;;;;;;;;4995976;28;20486;-79
2022/12/30 03:40:10;;;;;;;5.95;5.65;;;;;;;;;;4994540;28;20565;-79
2022/12/30 03:42:36;;;;;;;5.93;5.63;;;;;;;;;;5002917;28;20045;-79
2022/12/30 03:45:03;;;;;;;6.10;5.80;;;;;;;;;;4989171;28;20107;-80
2022/12/30 03:47:28;;;;;;;5.60;5.30;;;;;;;;;;4993705;28;20046;-78
2022/12/30 03:49:54;;;;;;;6.15;5.65;;;;;;;;;;4993904;28;20029;-79
2022/12/30 03:52:23;;;;;;;6.50;5.82;;;;;;;;;;5000841;28;20051;-79
2022/12/30 03:54:54;;;;;;;6.00;5.70;;;;;;;;;;4993898;28;20046;-79
2022/12/30 03:57:20;;;;;;;5.88;5.57;;;;;;;;;;4989252;28;20031;-79
2022/12/30 03:59:45;;;;;;;5.82;5.43;;;;;;;;;;4982256;28;20035;-79
2022/12/30 04:02:11;;;;;;;5.78;5.47;;;;;;;;;;4995103;28;20042;-79
2022/12/30 04:04:37;;;;;;;5.47;5.20;;;;;;;;;;4998587;28;20026;-79
2022/12/30 04:07:02;;;;;;;5.90;5.60;;;;;;;;;;5000695;28;20049;-79
2022/12/30 04:09:29;;;;;;;5.68;5.38;;;;;;;;;;4991537;28;20074;-79
2022/12/30 04:11:54;;;;;;;5.72;5.43;;;;;;;;;;4997220;28;20061;-79
2022/12/30 04:14:20;;;;;;;6.15;5.63;;;;;;;;;;4998716;28;20049;-79
2022/12/30 04:16:46;;;;;;;6.18;5.72;;;;;;;;;;4993846;28;20045;-80
2022/12/30 04:19:11;;;;;;;5.82;5.53;;;;;;;;;;4986127;28;20050;-78
2022/12/30 04:21:37;;;;;;;6.55;6.05;;;;;;;;;;4991606;28;20116;-79
2022/12/30 04:24:04;;;;;;;6.07;5.78;;;;;;;;;;4997170;28;20088;-79
2022/12/30 04:26:30;;;;;;;5.60;5.32;;;;;;;;;;4995628;28;22241;-79
2022/12/30 04:28:55;;;;;;;5.80;5.50;;;;;;;;;;4997614;28;20121;-79
2022/12/30 04:31:21;;;;;;;5.80;5.50;;;;;;;;;;4995593;28;20109;-79
2022/12/30 04:33:52;;;;;;;6.05;5.75;;;;;;;;;;4995736;28;20481;-79
2022/12/30 04:36:18;;;;;;;6.30;5.90;;;;;;;;;;4996232;28;20030;-78
2022/12/30 04:38:44;;;;;;;5.95;5.40;;;;;;;;;;5002267;28;20035;-79
2022/12/30 04:41:10;;;;;;;6.03;5.72;;;;;;;;;;4996160;28;20030;-79
2022/12/30 04:43:36;;;;;;;9.18;6.68;;;;;;;;;;4985772;28;20042;-79
2022/12/30 04:46:01;;;;;;;6.60;6.20;;;;;;;;;;4992301;28;20044;-79
2022/12/30 04:48:27;;;;;;;6.95;6.45;;;;;;;;;;4997439;28;20501;-79
2022/12/30 04:50:53;;;;;;;6.40;6.10;;;;;;;;;;4998233;28;20521;-79
2022/12/30 04:53:18;;;;;;;6.32;5.93;;;;;;;;;;4991933;28;20031;-79
2022/12/30 04:55:44;;;;;;;6.20;5.63;;;;;;;;;;4996799;28;20038;-79
2022/12/30 04:58:09;;;;;;;6.05;5.50;;;;;;;;;;4998080;28;20371;-79
2022/12/30 05:00:35;;;;;;;6.18;5.88;;;;;;;;;;4990133;28;20096;-79
2022/12/30 05:03:01;;;;;;;5.80;5.50;;;;;;;;;;4989263;28;20489;-79
2022/12/30 05:05:26;;;;;;;6.85;6.45;;;;;;;;;;4993628;28;20499;-78
2022/12/30 05:07:52;;;;;;;6.53;6.13;;;;;;;;;;4992235;28;20023;-79
2022/12/30 05:10:18;;;;;;;6.43;6.03;;;;;;;;;;5001394;28;20033;-79
2022/12/30 05:12:44;;;;;;;5.22;5.03;;;;;;;;;;4994250;28;20110;-78
2022/12/30 05:15:10;;;;;;;6.43;6.00;;;;;;;;;;4994007;28;20082;-79
2022/12/30 05:17:35;;;;;;;8.90;7.75;;;;;;;;;;4994792;28;20033;-78
2022/12/30 05:20:01;;;;;;;6.45;6.05;;;;;;;;;;4991883;28;20034;-78
2022/12/30 05:22:27;;;;;;;6.30;5.95;;;;;;;;;;4993912;28;20393;-79
2022/12/30 05:27:36;;;;;;;7.28;6.63;;;;;;;;;;4984114;28;20618;-78
2022/12/30 05:30:02;;;;;;;16.27;12.65;;;;;;;;;;4983976;28;20038;-79
2022/12/30 05:32:28;;;;;;;8.65;8.05;;;;;;;;;;4980577;28;20425;-79
2022/12/30 05:34:53;;;;;;;7.38;6.88;;;;;;;;;;4988170;28;20042;-79
2022/12/30 05:37:19;;;;;;;10.88;8.50;;;;;;;;;;5011997;28;20030;-79
2022/12/30 05:39:44;;;;;;;9.85;8.10;;;;;;;;;;4988275;28;20039;-79
2022/12/30 05:42:10;;;;;;;8.05;7.45;;;;;;;;;;4998652;28;20084;-79
2022/12/30 05:44:36;;;;;;;7.35;6.85;;;;;;;;;;4995016;28;20100;-78
2022/12/30 05:47:02;;;;;;;6.82;6.40;;;;;;;;;;4997632;28;20038;-78
2022/12/30 05:49:27;;;;;;;7.32;6.80;;;;;;;;;;4980436;28;20565;-79
2022/12/30 05:51:53;;;;;;;6.80;6.40;;;;;;;;;;4990328;28;20463;-78
2022/12/30 05:54:18;;;;;;;6.78;6.43;;;;;;;;;;4996642;28;20035;-78
2022/12/30 05:56:44;;;;;;;11.70;9.75;;;;;;;;;;4993354;28;20413;-78
2022/12/30 05:59:10;;;;;;;8.00;7.35;;;;;;;;;;4993984;28;20038;-78
2022/12/30 06:01:36;;;;;;;7.07;6.40;;;;;;;;;;4994726;28;20036;-77
2022/12/30 06:04:03;;;;;;;6.25;5.95;;;;;;;;;;4982581;28;20041;-78
2022/12/30 06:06:28;;;;;;;7.00;6.55;;;;;;;;;;4980587;28;20035;-77
2022/12/30 06:08:54;;;;;;;17.77;12.32;;;;;;;;;;4988962;28;20049;-78
2022/12/30 06:11:20;;;;;;;10.63;9.52;;;;;;;;;;4990265;28;20086;-78
2022/12/30 06:13:45;;;;;;;7.80;7.30;;;;;;;;;;4981895;28;20549;-78
2022/12/30 06:16:11;;;;;;;7.53;6.93;;;;;;;;;;4994815;28;20426;-78
2022/12/30 06:18:36;;;;;;;7.00;6.57;;;;;;;;;;4990594;28;20097;-78
2022/12/30 06:21:02;;;;;;;11.45;10.40;;;;;;;;;;4999148;28;20059;-78
2022/12/30 06:23:28;;;;;;;11.85;10.85;;;;;;;;;;4998479;28;20080;-78
2022/12/30 06:25:55;;;;;;;8.63;8.02;;;;;;;;;;4992882;28;20079;-78
2022/12/30 06:28:22;;;;;;;8.55;7.85;;;;;;;;;;5000710;28;20097;-78
2022/12/30 06:30:48;;;;;;;7.70;7.20;;;;;;;;;;4998809;28;20046;-78
2022/12/30 06:33:18;;;;;;;9.15;8.45;;;;;;;;;;5003731;28;20064;-78
2022/12/30 06:35:45;;;;;;;7.80;7.30;;;;;;;;;;4996268;28;20050;-78
2022/12/30 06:38:10;;;;;;;6.38;5.97;;;;;;;;;;4994878;28;20034;-78
2022/12/30 06:40:36;;;;;;;7.35;6.63;;;;;;;;;;4997087;28;20034;-78
2022/12/30 06:43:02;;;;;;;8.50;7.70;;;;;;;;;;5002814;28;20033;-78
2022/12/30 06:45:27;;;;;;;6.80;6.40;;;;;;;;;;5002928;28;20034;-78
2022/12/30 06:47:53;;;;;;;8.93;8.18;;;;;;;;;;4994844;28;20049;-78
2022/12/30 06:50:18;;;;;;;6.43;6.03;;;;;;;;;;5002566;28;20034;-78
2022/12/30 06:52:44;;;;;;;7.22;6.82;;;;;;;;;;5005786;28;20643;-77
2022/12/30 06:55:10;;;;;;;13.57;12.52;;;;;;;;;;4990898;28;20030;-77
2022/12/30 06:57:35;;;;;;;14.48;13.30;;;;;;;;;;4994749;28;20089;-77
2022/12/30 07:00:04;;;;;;;19.48;17.75;;;;;;;;;;4996450;28;20113;-77
2022/12/30 07:02:30;;;;;;;8.40;7.85;;;;;;;;;;4996252;28;20038;-78
2022/12/30 07:04:55;;;;;;;9.55;8.90;;;;;;;;;;4994223;28;20038;-77
2022/12/30 07:07:21;;;;;;;8.00;7.30;;;;;;;;;;5025030;28;20034;-77
2022/12/30 07:09:47;;;;;;;7.43;6.82;;;;;;;;;;4995348;28;20038;-77
2022/12/30 07:12:13;;;;;;;6.72;6.32;;;;;;;;;;5000301;28;20042;-78
2022/12/30 07:14:38;;;;;;;7.13;6.72;;;;;;;;;;4997573;28;20386;-78
2022/12/30 07:17:04;;;;;;;7.20;6.75;;;;;;;;;;4997848;28;20511;-78
2022/12/30 07:19:30;;;;;;;7.50;7.00;;;;;;;;;;4998253;28;20034;-78
2022/12/30 07:21:55;;;;;;;8.05;7.45;;;;;;;;;;4991449;28;20029;-77
2022/12/30 07:24:21;;;;;;;7.72;7.20;;;;;;;;;;5004604;28;20037;-77
2022/12/30 07:26:46;;;;;;;6.38;6.07;;;;;;;;;;5002747;28;20741;-78
2022/12/30 07:29:12;;;;;;;6.53;6.03;;;;;;;;;;4994117;28;20053;-77
2022/12/30 07:31:39;;;;;;;7.20;6.70;;;;;;;;;;4997043;28;20739;-77
2022/12/30 07:34:05;;;;;;;7.00;6.30;;;;;;;;;;4991186;28;20041;-77
2022/12/30 07:36:31;;;;;;;6.78;6.38;;;;;;;;;;4989201;28;20034;-77
2022/12/30 07:39:00;;;;;;;8.98;8.00;;;;;;;;;;4993720;28;20034;-77
2022/12/30 07:41:26;;;;;;;7.28;6.78;;;;;;;;;;4983099;28;20502;-79
2022/12/30 07:43:52;;;;;;;7.15;6.70;;;;;;;;;;4997776;28;20125;-77
2022/12/30 07:46:18;;;;;;;7.03;6.63;;;;;;;;;;4996257;28;20030;-77
2022/12/30 07:48:44;;;;;;;7.63;7.07;;;;;;;;;;4991065;28;20486;-76
2022/12/30 07:51:12;;;;;;;9.45;8.23;;;;;;;;;;4996836;28;20041;-77
2022/12/30 07:53:38;;;;;;;7.15;6.72;;;;;;;;;;4991981;28;20172;-78
2022/12/30 07:56:06;;;;;;;7.22;6.70;;;;;;;;;;4993029;28;20114;-78
2022/12/30 07:58:32;;;;;;;7.05;6.55;;;;;;;;;;4989663;28;20038;-77
2022/12/30 08:01:02;;;;;;;8.30;7.55;;;;;;;;;;5002817;28;20046;-77
2022/12/30 08:03:27;;;;;;;7.38;6.97;;;;;;;;;;4994894;28;20026;-77
2022/12/30 08:05:53;;;;;;;7.38;6.88;;;;;;;;;;4992669;28;20111;-77
2022/12/30 08:08:19;;;;;;;6.85;6.55;;;;;;;;;;4987943;28;20026;-77
2022/12/30 08:10:56;;;;;;;7.45;6.97;;;;;;;;;;4994964;28;20073;-77
2022/12/30 08:13:22;;;;;;;7.25;6.78;;;;;;;;;;4990880;28;20037;-78
2022/12/30 08:15:48;;;;;;;6.97;6.47;;;;;;;;;;4990905;28;20034;-78
2022/12/30 08:18:13;;;;;;;7.13;6.72;;;;;;;;;;4993444;28;20041;-77
2022/12/30 08:20:39;;;;;;;6.75;6.35;;;;;;;;;;4991205;28;20040;-78
2022/12/30 08:23:04;;;;;;;6.63;6.22;;;;;;;;;;4998387;28;20044;-78
2022/12/30 08:25:30;;;;;;;6.43;6.13;;;;;;;;;;4986412;28;20035;-78
2022/12/30 08:27:55;;;;;;;6.38;6.05;;;;;;;;;;4989893;28;20644;-78
2022/12/30 08:30:21;;;;;;;7.25;6.75;;;;;;;;;;4995542;28;20034;-78
2022/12/30 08:32:47;;;;;;;6.40;6.10;;;;;;;;;;4990117;28;20038;-78
2022/12/30 08:35:12;;;;;;;6.70;6.30;;;;;;;;;;5006059;28;20030;-77
2022/12/30 08:37:38;;;;;;;6.40;6.00;;;;;;;;;;4987664;28;20084;-77
2022/12/30 08:40:04;;;;;;;6.70;6.30;;;;;;;;;;4990588;28;20042;-77
2022/12/30 08:42:30;;;;;;;6.95;6.45;;;;;;;;;;4993969;28;20394;-78
2022/12/30 08:44:55;;;;;;;6.43;6.03;;;;;;;;;;4996453;28;20034;-77
2022/12/30 08:47:21;;;;;;;7.10;6.70;;;;;;;;;;4993625;28;20507;-78
2022/12/30 08:49:47;;;;;;;7.45;6.78;;;;;;;;;;4988681;28;20030;-78
2022/12/30 08:52:12;;;;;;;7.53;7.03;;;;;;;;;;4985002;28;20080;-78
2022/12/30 08:54:38;;;;;;;8.18;7.47;;;;;;;;;;4990532;28;20042;-77
2022/12/30 08:57:03;;;;;;;7.03;6.63;;;;;;;;;;4993424;28;20521;-77
2022/12/30 08:59:29;;;;;;;7.07;6.53;;;;;;;;;;4989245;28;20038;-77
2022/12/30 09:01:55;;;;;;;6.50;6.13;;;;;;;;;;4996107;28;20038;-77
2022/12/30 09:04:21;;;;;;;7.60;7.10;;;;;;;;;;4997409;28;20037;-77
2022/12/30 09:06:46;;;;;;;7.00;6.50;;;;;;;;;;4993018;28;20042;-77
2022/12/30 09:09:14;;;;;;;7.22;6.75;;;;;;;;;;4992089;28;20038;-77
2022/12/30 09:11:42;;;;;;;7.68;6.80;;;;;;;;;;4990783;28;20070;-78
2022/12/30 09:14:09;;;;;;;6.80;6.40;;;;;;;;;;4997098;28;20034;-77
2022/12/30 09:16:35;;;;;;;7.30;6.80;;;;;;;;;;4995990;28;20038;-77
2022/12/30 09:19:01;;;;;;;7.63;7.18;;;;;;;;;;4988045;28;20030;-77
2022/12/30 09:21:27;;;;;;;7.85;7.32;;;;;;;;;;4994744;28;20062;-77
2022/12/30 09:23:53;;;;;;;8.55;7.95;;;;;;;;;;4993114;28;20070;-77
2022/12/30 09:26:22;;;;;;;9.38;8.68;;;;;;;;;;4993248;28;20030;-77
2022/12/30 09:28:48;;;;;;;9.60;8.60;;;;;;;;;;4988465;28;20038;-77
2022/12/30 09:31:14;;;;;;;8.57;7.88;;;;;;;;;;4983173;28;20681;-78
2022/12/30 09:33:39;;;;;;;8.07;7.57;;;;;;;;;;4996385;28;20033;-77
2022/12/30 09:36:06;;;;;;;7.85;7.40;;;;;;;;;;4991327;28;20034;-77
2022/12/30 09:38:32;;;;;;;8.80;8.10;;;;;;;;;;4986891;28;20031;-78
2022/12/30 09:41:08;;;;;;;8.40;7.70;;;;;;;;;;5007121;28;20046;-78
2022/12/30 09:44:03;;;;;;;7.97;7.47;;;;;;;;;;4995023;28;20229;-78
2022/12/30 09:46:31;;;;;;;12.90;8.85;;;;;;;;;;4990040;28;20038;-78
2022/12/30 09:49:02;;;;;;;10.27;9.37;;;;;;;;;;4988000;28;20035;-78
2022/12/30 09:51:41;;;;;;;10.15;9.15;;;;;;;;;;4999371;28;20288;-78
2022/12/30 09:54:14;;;;;;;11.93;10.50;;;;;;;;;;4994927;28;20034;-78
2022/12/30 09:56:43;;;;;;;13.82;12.10;;;;;;;;;;4996232;28;20371;-78
2022/12/30 09:59:24;;;;;;;28.08;15.52;;;;;;;;;;4988112;28;20030;-79
2022/12/30 10:01:59;;;;;;;10.02;9.23;;;;;;;;;;5001708;28;20398;-78
2022/12/30 10:04:31;;;;;;;8.77;8.10;;;;;;;;;;4992968;28;20038;-78
2022/12/30 10:07:23;;;;;;;9.25;8.52;;;;;;;;;;4998071;28;20042;-79
2022/12/30 10:10:30;;;;;;;9.23;8.52;;;;;;;;;;4993553;28;20118;-79
2022/12/30 10:13:10;;;;;;;8.85;8.15;;;;;;;;;;4991573;28;20091;-79
2022/12/30 10:15:54;;;;;;;8.63;7.93;;;;;;;;;;4993377;28;20030;-79
2022/12/30 10:18:45;;;;;;;9.07;8.27;;;;;;;;;;4993484;28;20041;-79
2022/12/30 10:21:30;;;;;;;9.05;8.23;;;;;;;;;;4985753;28;20097;-79
2022/12/30 10:24:07;;;;;;;8.20;7.50;;;;;;;;;;4995653;28;20030;-79
2022/12/30 10:26:42;;;;;;;7.93;7.43;;;;;;;;;;4996012;28;20114;-79
2022/12/30 10:29:17;;;;;;;11.77;10.77;;;;;;;;;;4994082;28;20065;-78
2022/12/30 10:31:45;;;;;;;8.00;7.40;;;;;;;;;;4985613;28;20039;-79
2022/12/30 10:34:33;;;;;;;29.55;26.55;;;;;;;;;;4992791;28;20058;-79
2022/12/30 10:37:04;;;;;;;8.35;7.85;;;;;;;;;;4993739;28;20041;-79
2022/12/30 10:39:36;;;;;;;9.43;8.73;;;;;;;;;;4989907;28;20411;-79
2022/12/30 10:42:16;;;;;;;11.15;10.27;;;;;;;;;;4991558;28;20117;-79
2022/12/30 10:45:00;;;;;;;8.18;7.57;;;;;;;;;;4996945;28;20033;-78
2022/12/30 10:47:48;;;;;;;8.80;8.20;;;;;;;;;;4992019;28;20506;-80
2022/12/30 10:50:21;;;;;;;8.40;7.80;;;;;;;;;;4985598;28;20037;-80
2022/12/30 10:52:47;;;;;;;8.82;8.13;;;;;;;;;;4982010;28;20040;-80
2022/12/30 10:55:36;;;;;;;8.18;7.57;;;;;;;;;;4987225;28;20113;-79
2022/12/30 10:58:05;;;;;;;8.68;8.07;;;;;;;;;;4972469;28;20108;-80
2022/12/30 11:00:34;;;;;;;7.50;7.10;;;;;;;;;;4982984;28;20037;-82
2022/12/30 11:03:05;;;;;;;7.45;7.03;;;;;;;;;;4992126;28;20030;-82
2022/12/30 11:05:38;;;;;;;7.40;7.00;;;;;;;;;;4997223;28;20061;-80
2022/12/30 11:08:17;;;;;;;7.30;6.90;;;;;;;;;;4997602;28;20029;-80
2022/12/30 11:10:42;;;;;;;7.55;7.05;;;;;;;;;;4987335;28;20051;-80
2022/12/30 11:15:58;;;;;;;7.20;6.80;;;;;;;;;;5001109;28;20119;-80
2022/12/30 11:18:29;;;;;;;6.97;6.47;;;;;;;;;;4994396;28;20085;-80
2022/12/30 11:20:58;;;;;;;7.20;6.70;;;;;;;;;;4994588;28;20408;-79
2022/12/30 11:23:31;;;;;;;6.85;6.55;;;;;;;;;;4993548;28;20036;-80
2022/12/30 11:25:58;;;;;;;7.15;6.75;;;;;;;;;;4997562;28;20045;-79
2022/12/30 11:28:36;;;;;;;6.55;6.15;;;;;;;;;;4995909;28;20088;-78
2022/12/30 11:31:14;;;;;;;7.03;6.53;;;;;;;;;;4991395;28;20034;-79
2022/12/30 11:33:49;;;;;;;6.97;6.57;;;;;;;;;;4993055;28;20040;-78
2022/12/30 11:36:20;;;;;;;7.20;6.80;;;;;;;;;;5000467;28;20057;-79
2022/12/30 11:38:50;;;;;;;7.30;6.90;;;;;;;;;;4993019;28;20042;-79
2022/12/30 11:41:16;;;;;;;7.47;6.70;;;;;;;;;;4995004;28;20069;-80
2022/12/30 11:43:49;;;;;;;6.93;6.50;;;;;;;;;;5001019;28;20046;-79
2022/12/30 11:46:18;;;;;;;7.10;6.70;;;;;;;;;;5004822;28;20513;-79
2022/12/30 11:48:55;;;;;;;;;;;;;;;;;;4996078;28;20060;-79
2022/12/30 11:51:26;;;;;;;7.15;6.75;;;;;;;;;;4992400;28;19925;-79
2022/12/30 11:54:13;;;;;;;7.10;6.70;;;;;;;;;;4997648;28;20047;-77
2022/12/30 11:56:51;;;;;;;6.65;6.35;;;;;;;;;;4994361;28;20039;-77
2022/12/30 11:59:22;;;;;;;8.00;7.50;;;;;;;;;;4995343;28;20026;-77
2022/12/30 12:02:02;;;;;;;7.47;6.97;;;;;;;;;;4998637;28;20030;-78
2022/12/30 12:04:41;;;;;;;9.15;8.45;;;;;;;;;;4998946;28;20034;-77
2022/12/30 12:07:15;;;;;;;7.43;7.03;;;;;;;;;;4992132;28;20405;-76
2022/12/30 12:09:49;;;;;;;7.43;7.03;;;;;;;;;;4990619;28;20042;-77
2022/12/30 12:12:18;;;;;;;7.80;7.03;;;;;;;;;;4998142;28;20414;-76
2022/12/30 12:15:29;;;;;;;8.18;7.57;;;;;;;;;;5005784;28;20065;-78
2022/12/30 12:18:03;;;;;;;11.63;9.95;;;;;;;;;;5013037;28;20081;-77
2022/12/30 12:20:46;;;;;;;8.48;7.78;;;;;;;;;;4993200;28;20112;-77
2022/12/30 12:23:15;;;;;;;8.73;8.13;;;;;;;;;;4992005;28;20026;-77
2022/12/30 12:26:10;;;;;;;10.38;9.50;;;;;;;;;;4996683;28;20070;-77
2022/12/30 12:28:40;;;;;;;7.88;7.38;;;;;;;;;;4994355;28;20052;-77
2022/12/30 12:31:24;;;;;;;9.27;8.57;;;;;;;;;;5008180;28;20390;-78
2022/12/30 12:34:23;;;;;;;17.63;15.95;;;;;;;;;;4989286;28;20042;-77
2022/12/30 12:37:13;;;;;;;10.00;9.10;;;;;;;;;;4987842;28;20050;-77
2022/12/30 12:40:16;;;;;;;8.00;7.50;;;;;;;;;;4989793;28;20054;-77
2022/12/30 12:43:26;;;;;;;11.88;10.77;;;;;;;;;;4992620;28;20041;-78
2022/12/30 12:46:08;;;;;;;7.90;7.40;;;;;;;;;;4953265;28;20058;-78
2022/12/30 12:48:49;;;;;;;7.78;7.10;;;;;;;;;;4956233;28;20053;-77
2022/12/30 12:51:31;;;;;;;8.77;8.07;;;;;;;;;;4951689;28;20049;-77
2022/12/30 12:54:23;;;;;;;7.18;6.78;;;;;;;;;;4949421;28;20140;-78
2022/12/30 12:56:58;;;;;;;9.45;8.55;;;;;;;;;;4957012;28;20058;-79
2022/12/30 12:59:38;;;;;;;11.75;9.95;;;;;;;;;;4951555;28;20028;-78
2022/12/30 13:02:41;;;;;;;8.43;7.82;;;;;;;;;;4955270;28;20074;-78
2022/12/30 13:05:15;;;;;;;12.10;11.02;;;;;;;;;;4951905;28;20035;-78
2022/12/30 13:08:00;;;;;;;8.70;8.10;;;;;;;;;;4956252;28;20050;-77
2022/12/30 13:10:38;;;;;;;7.10;6.70;;;;;;;;;;4953404;28;20426;-78
2022/12/30 13:13:09;;;;;;;7.75;7.25;;;;;;;;;;4953563;28;20146;-79
2022/12/30 13:15:50;;;;;;;9.00;8.30;;;;;;;;;;4960500;28;20123;-78
2022/12/30 13:18:20;;;;;;;12.68;11.55;;;;;;;;;;4944424;28;20459;-78
2022/12/30 13:20:50;;;;;;;20.73;13.95;;;;;;;;;;4989400;28;20055;-79
2022/12/30 13:23:19;;;;;;;12.90;10.50;;;;;;;;;;5005400;28;20057;-79
2022/12/30 13:25:53;;;;;;;9.32;8.48;;;;;;;;;;4982099;28;20042;-78
2022/12/30 13:28:24;;;;;;;12.38;10.38;;;;;;;;;;5013166;28;20129;-78
2022/12/30 13:31:23;;;;;;;9.43;8.57;;;;;;;;;;4992187;28;20095;-77
2022/12/30 13:34:13;;;;;;;12.05;10.93;;;;;;;;;;4992049;28;20049;-79
2022/12/30 13:36:59;;;;;;;13.55;10.80;;;;;;;;;;4998385;28;20030;-78
2022/12/30 13:39:30;;;;;;;11.48;10.35;;;;;;;;;;4993152;28;23436;-79
2022/12/30 13:42:06;;;;;;;13.27;11.88;;;;;;;;;;4993224;28;20042;-78
2022/12/30 13:44:36;;;;;;;26.30;16.88;;;;;;;;;;4999513;28;20030;-78
2022/12/30 13:47:04;;;;;;;13.98;12.52;;;;;;;;;;4987824;28;20406;-77
2022/12/30 13:49:34;;;;;;;13.55;11.88;;;;;;;;;;4993184;28;20033;-77
2022/12/30 13:52:21;;;;;;;11.27;10.20;;;;;;;;;;4999605;28;20438;-77
2022/12/30 13:54:52;;;;;;;19.52;14.00;;;;;;;;;;4986678;28;20034;-77
2022/12/30 13:57:50;;;;;;;16.08;12.40;;;;;;;;;;4981077;28;20065;-77
2022/12/30 14:00:18;;;;;;;23.10;16.52;;;;;;;;;;4982515;28;20134;-77
2022/12/30 14:02:58;;;;;;;9.77;8.90;;;;;;;;;;4993421;28;20096;-77
2022/12/30 14:05:38;;;;;;;8.88;8.13;;;;;;;;;;4982313;28;20038;-77
2022/12/30 14:08:26;;;;;;;9.23;8.25;;;;;;;;;;4984204;28;20513;-78
2022/12/30 14:11:01;;;;;;;8.90;8.07;;;;;;;;;;4989284;28;20493;-77
2022/12/30 14:13:26;;;;;;;7.40;6.90;;;;;;;;;;4981878;28;20503;-77
2022/12/30 14:16:01;;;;;;;8.48;7.78;;;;;;;;;;4984201;28;20069;-78
2022/12/30 14:18:35;;;;;;;7.93;7.32;;;;;;;;;;4991642;28;20026;-78
2022/12/30 14:21:05;;;;;;;8.52;7.82;;;;;;;;;;4994197;28;20048;-78
2022/12/30 14:23:41;;;;;;;7.90;7.40;;;;;;;;;;4990811;28;20130;-79
2022/12/30 14:26:26;;;;;;;8.73;7.93;;;;;;;;;;4985440;28;20038;-78
2022/12/30 14:28:54;;;;;;;9.07;8.18;;;;;;;;;;4998596;28;20173;-79
2022/12/30 14:31:25;;;;;;;9.05;8.25;;;;;;;;;;5014311;28;20048;-78
2022/12/30 14:33:51;;;;;;;10.93;8.70;;;;;;;;;;5000568;28;20041;-79
2022/12/30 14:36:19;;;;;;;9.80;8.90;;;;;;;;;;4992670;28;20038;-79
2022/12/30 14:38:51;;;;;;;11.27;9.23;;;;;;;;;;4990310;28;20089;-79
2022/12/30 14:41:24;;;;;;;8.98;8.20;;;;;;;;;;4994218;28;20508;-78
2022/12/30 14:44:03;;;;;;;8.60;7.90;;;;;;;;;;4998141;28;20046;-78
2022/12/30 14:46:41;;;;;;;8.10;7.35;;;;;;;;;;4991587;28;20607;-79
2022/12/30 14:49:19;;;;;;;8.00;7.38;;;;;;;;;;4991858;28;20490;-79
2022/12/30 14:51:49;;;;;;;8.30;7.80;;;;;;;;;;4978630;28;20781;-78
2022/12/30 14:54:19;;;;;;;8.02;7.43;;;;;;;;;;4989661;28;20041;-79
2022/12/30 14:56:54;;;;;;;7.75;7.25;;;;;;;;;;4991984;28;20066;-78
2022/12/30 14:59:23;;;;;;;7.63;7.13;;;;;;;;;;4987551;28;20442;-78
2022/12/30 15:02:10;;;;;;;8.00;7.50;;;;;;;;;;4995759;28;20046;-78
2022/12/30 15:04:36;;;;;;;8.60;8.00;;;;;;;;;;4996944;28;20288;-78
2022/12/30 15:07:02;;;;;;;8.02;7.53;;;;;;;;;;4988121;28;20038;-78
2022/12/30 15:09:28;;;;;;;7.78;7.25;;;;;;;;;;4990991;28;20057;-78
2022/12/30 15:11:58;;;;;;;7.55;7.05;;;;;;;;;;4991341;28;20062;-78
2022/12/30 15:14:24;;;;;;;8.02;7.43;;;;;;;;;;5002563;28;20094;-78
2022/12/30 15:17:16;;;;;;;7.85;7.28;;;;;;;;;;4993010;28;20045;-79
2022/12/30 15:19:42;;;;;;;7.65;7.05;;;;;;;;;;4991766;28;20113;-79
2022/12/30 15:22:12;;;;;;;7.55;7.15;;;;;;;;;;5013041;28;20130;-78
2022/12/30 15:24:42;;;;;;;7.60;7.18;;;;;;;;;;4988922;28;20062;-78
2022/12/30 15:27:17;;;;;;;7.70;7.30;;;;;;;;;;4996299;28;20034;-78
2022/12/30 15:29:43;;;;;;;9.25;6.55;;;;;;;;;;5000767;28;20062;-78
2022/12/30 15:32:31;;;;;;;7.15;6.75;;;;;;;;;;4991094;28;20034;-78
2022/12/30 15:35:13;;;;;;;7.70;7.30;;;;;;;;;;4995640;28;20387;-78
2022/12/30 15:37:41;;;;;;;7.38;6.88;;;;;;;;;;4999409;28;20108;-78
2022/12/30 15:40:15;;;;;;;6.90;6.53;;;;;;;;;;4994258;28;20585;-78
2022/12/30 15:42:50;;;;;;;7.47;7.07;;;;;;;;;;4978968;28;20047;-78
2022/12/30 15:45:33;;;;;;;7.90;7.30;;;;;;;;;;4987904;28;20034;-77
2022/12/30 15:47:59;;;;;;;8.10;7.30;;;;;;;;;;4991278;28;20066;-78
2022/12/30 15:50:42;;;;;;;7.60;7.20;;;;;;;;;;4987163;28;20046;-78
2022/12/30 15:53:31;;;;;;;8.35;7.85;;;;;;;;;;4992927;28;20050;-78
2022/12/30 15:55:58;;;;;;;7.90;7.40;;;;;;;;;;4988508;28;20030;-78